createdAt,value
2023-05-06T00:00:26.025Z,14.4483
2023-05-06T00:01:26.286Z,14.4635
2023-05-06T00:02:26.655Z,14.4873
2023-05-06T00:03:27.019Z,14.4667
2023-05-06T00:04:27.483Z,14.4761
2023-05-06T00:05:27.777Z,14.4614
2023-05-06T00:06:28.072Z,14.4242
2023-05-06T00:07:28.393Z,14.4713
2023-05-06T00:08:28.679Z,14.4298
2023-05-06T00:09:29.039Z,14.4062
2023-05-06T00:10:29.407Z,14.4259
2023-05-06T00:11:29.712Z,14.3622
2023-05-06T00:12:30.025Z,14.3497
2023-05-06T00:13:30.381Z,14.3577
2023-05-06T00:14:30.711Z,14.4057
2023-05-06T00:15:32.190Z,14.4027
2023-05-06T00:16:32.911Z,14.3746
2023-05-06T00:17:33.501Z,14.4216
2023-05-06T00:18:33.958Z,14.4292
2023-05-06T00:19:34.277Z,14.4504
2023-05-06T00:20:34.565Z,14.4155
2023-05-06T00:21:34.884Z,14.4095
2023-05-06T00:22:35.251Z,14.4015
2023-05-06T00:23:35.607Z,14.4280
2023-05-06T00:24:35.981Z,14.4564
2023-05-06T00:25:36.377Z,14.4996
2023-05-06T00:26:36.701Z,14.5795
2023-05-06T00:27:37.016Z,14.6195
2023-05-06T00:28:37.330Z,14.6376
2023-05-06T00:29:37.646Z,14.6727
2023-05-06T00:30:37.999Z,14.6788
2023-05-06T00:31:38.342Z,14.6985
2023-05-06T00:32:38.766Z,14.6886
2023-05-06T00:33:39.006Z,14.6599
2023-05-06T00:34:39.326Z,14.6146
2023-05-06T00:35:39.623Z,14.5179
2023-05-06T00:36:39.913Z,14.4204
2023-05-06T00:37:40.191Z,14.3880
2023-05-06T00:38:40.587Z,14.3146
2023-05-06T00:39:40.885Z,14.3516
2023-05-06T00:40:41.316Z,14.3571
2023-05-06T00:41:41.594Z,14.3737
2023-05-06T00:42:41.979Z,14.4273
2023-05-06T00:43:42.290Z,14.4240
2023-05-06T00:44:42.570Z,14.3847
2023-05-06T00:45:42.838Z,14.4212
2023-05-06T00:46:43.104Z,14.4408
2023-05-06T00:47:43.463Z,14.4678
2023-05-06T00:48:43.799Z,14.5005
2023-05-06T00:49:44.121Z,14.5064
2023-05-06T00:50:44.389Z,14.4937
2023-05-06T00:51:44.735Z,14.4837
2023-05-06T00:52:45.072Z,14.4893
2023-05-06T00:53:45.402Z,14.4799
2023-05-06T00:54:45.829Z,14.4916
2023-05-06T00:55:46.171Z,14.4943
2023-05-06T00:56:46.462Z,14.5513
2023-05-06T00:57:46.830Z,14.6025
2023-05-06T00:58:47.152Z,14.6292
2023-05-06T00:59:47.512Z,14.6133
2023-05-06T01:00:47.900Z,14.6235
2023-05-06T01:01:48.217Z,14.6317
2023-05-06T01:02:48.596Z,14.6348
2023-05-06T01:03:49.087Z,14.5402
2023-05-06T01:04:49.590Z,14.5295
2023-05-06T01:05:49.890Z,14.5487
2023-05-06T01:06:50.214Z,14.5329
2023-05-06T01:07:50.564Z,14.5518
2023-05-06T01:08:50.862Z,14.5432
2023-05-06T01:09:51.182Z,14.5356
2023-05-06T01:10:51.536Z,14.5449
2023-05-06T01:11:51.833Z,14.5117
2023-05-06T01:12:52.199Z,14.4344
2023-05-06T01:13:52.450Z,14.3805
2023-05-06T01:14:52.761Z,14.3238
2023-05-06T01:15:53.088Z,14.2838
2023-05-06T01:16:53.413Z,14.2405
2023-05-06T01:17:53.811Z,14.2392
2023-05-06T01:18:54.105Z,14.2313
2023-05-06T01:19:54.436Z,14.1700
2023-05-06T01:20:54.784Z,14.1871
2023-05-06T01:21:55.108Z,14.1302
2023-05-06T01:22:55.394Z,14.1613
2023-05-06T01:23:55.747Z,14.1695
2023-05-06T01:24:55.993Z,14.1807
2023-05-06T01:25:56.292Z,14.1950
2023-05-06T01:26:56.621Z,14.2744
2023-05-06T01:27:56.951Z,14.2791
2023-05-06T01:28:57.251Z,14.2550
2023-05-06T01:29:57.565Z,14.2040
2023-05-06T01:30:57.963Z,14.2480
2023-05-06T01:31:58.308Z,14.2634
2023-05-06T01:32:58.636Z,14.2906
2023-05-06T01:33:59.062Z,14.3244
2023-05-06T01:34:59.345Z,14.3651
2023-05-06T01:35:59.649Z,14.3538
2023-05-06T01:36:59.923Z,14.3628
2023-05-06T01:38:00.228Z,14.3824
2023-05-06T01:39:00.490Z,14.3253
2023-05-06T01:40:00.791Z,14.3559
2023-05-06T01:41:01.070Z,14.3286
2023-05-06T01:42:01.454Z,14.2187
2023-05-06T01:43:01.772Z,14.1770
2023-05-06T01:44:02.082Z,14.1273
2023-05-06T01:45:02.364Z,14.0285
2023-05-06T01:46:02.694Z,13.9659
2023-05-06T01:47:03.018Z,14.0075
2023-05-06T01:48:03.391Z,13.9746
2023-05-06T01:49:03.746Z,13.9170
2023-05-06T01:50:04.103Z,13.8880
2023-05-06T01:51:04.433Z,13.9128
2023-05-06T01:52:04.829Z,13.9565
2023-05-06T01:53:05.214Z,13.9462
2023-05-06T01:54:05.652Z,13.9451
2023-05-06T01:55:06.213Z,13.9331
2023-05-06T01:56:06.603Z,13.9116
2023-05-06T01:57:06.976Z,13.8530
2023-05-06T01:58:07.365Z,13.8641
2023-05-06T01:59:07.726Z,13.8975
2023-05-06T02:00:08.111Z,13.9467
2023-05-06T02:01:08.741Z,13.9668
2023-05-06T02:02:09.389Z,13.9981
2023-05-06T02:03:09.856Z,14.0247
2023-05-06T02:04:10.188Z,14.0585
2023-05-06T02:05:10.740Z,14.0480
2023-05-06T02:06:11.607Z,14.0514
2023-05-06T02:07:11.973Z,14.0356
2023-05-06T02:08:12.527Z,14.0719
2023-05-06T02:09:12.884Z,14.0881
2023-05-06T02:10:13.218Z,14.1281
2023-05-06T02:11:13.558Z,14.1639
2023-05-06T02:12:13.876Z,14.1561
2023-05-06T02:13:14.329Z,14.1714
2023-05-06T02:14:14.784Z,14.1644
2023-05-06T02:15:15.082Z,14.1849
2023-05-06T02:16:15.467Z,14.1554
2023-05-06T02:17:15.775Z,14.1076
2023-05-06T02:18:16.146Z,14.0513
2023-05-06T02:19:17.182Z,14.0191
2023-05-06T02:20:17.522Z,14.0574
2023-05-06T02:21:17.960Z,14.0880
2023-05-06T02:22:18.325Z,14.0756
2023-05-06T02:23:18.691Z,14.0768
2023-05-06T02:24:19.083Z,14.1079
2023-05-06T02:25:19.445Z,14.1539
2023-05-06T02:26:19.802Z,14.1606
2023-05-06T02:27:20.126Z,14.2020
2023-05-06T02:28:20.493Z,14.2147
2023-05-06T02:29:20.892Z,14.2236
2023-05-06T02:30:21.292Z,14.1985
2023-05-06T02:31:21.995Z,14.1417
2023-05-06T02:32:22.439Z,14.0909
2023-05-06T02:33:22.880Z,14.1188
2023-05-06T02:34:23.275Z,14.1456
2023-05-06T02:35:23.640Z,14.1520
2023-05-06T02:36:24.059Z,14.1648
2023-05-06T02:37:24.403Z,14.2203
2023-05-06T02:38:24.780Z,14.2025
2023-05-06T02:39:25.176Z,14.1207
2023-05-06T02:40:25.873Z,14.1454
2023-05-06T02:41:26.363Z,14.1381
2023-05-06T02:42:26.713Z,14.1220
2023-05-06T02:43:27.152Z,14.0387
2023-05-06T02:44:27.495Z,14.0491
2023-05-06T02:45:27.942Z,14.0909
2023-05-06T02:46:28.285Z,14.1318
2023-05-06T02:47:28.707Z,14.1693
2023-05-06T02:48:29.108Z,14.1637
2023-05-06T02:49:29.513Z,14.1389
2023-05-06T02:50:29.919Z,14.1246
2023-05-06T02:51:30.301Z,14.1515
2023-05-06T02:52:30.685Z,14.1608
2023-05-06T02:53:30.999Z,14.1639
2023-05-06T02:54:31.374Z,14.1623
2023-05-06T02:55:31.784Z,14.1221
2023-05-06T02:56:32.159Z,14.0719
2023-05-06T02:57:32.477Z,14.0753
2023-05-06T02:58:32.877Z,14.0222
2023-05-06T02:59:33.190Z,13.9956
2023-05-06T03:00:33.655Z,13.9573
2023-05-06T03:01:34.061Z,13.9253
2023-05-06T03:02:34.492Z,13.9410
2023-05-06T03:03:34.883Z,13.9188
2023-05-06T03:04:35.403Z,13.9381
2023-05-06T03:05:36.080Z,13.9598
2023-05-06T03:06:36.471Z,13.9793
2023-05-06T03:07:37.012Z,13.9883
2023-05-06T03:08:37.401Z,13.9989
2023-05-06T03:09:37.787Z,14.0138
2023-05-06T03:10:38.173Z,13.9988
2023-05-06T03:11:38.557Z,13.9909
2023-05-06T03:12:38.986Z,13.9649
2023-05-06T03:13:39.310Z,13.9564
2023-05-06T03:14:39.827Z,13.9445
2023-05-06T03:15:40.189Z,13.8566
2023-05-06T03:16:40.570Z,13.8562
2023-05-06T03:17:40.896Z,13.8678
2023-05-06T03:18:41.212Z,13.8551
2023-05-06T03:19:41.575Z,13.8493
2023-05-06T03:20:41.929Z,13.8707
2023-05-06T03:21:42.335Z,13.8591
2023-05-06T03:22:42.664Z,13.8492
2023-05-06T03:23:43.040Z,13.8679
2023-05-06T03:24:43.397Z,13.8607
2023-05-06T03:25:43.823Z,13.8465
2023-05-06T03:26:44.140Z,13.8622
2023-05-06T03:27:44.460Z,13.8778
2023-05-06T03:28:44.780Z,13.8768
2023-05-06T03:29:45.199Z,13.8909
2023-05-06T03:30:45.661Z,13.8735
2023-05-06T03:31:46.041Z,13.8691
2023-05-06T03:32:46.429Z,13.8590
2023-05-06T03:33:46.741Z,13.8844
2023-05-06T03:34:47.130Z,13.8739
2023-05-06T03:35:47.548Z,13.8895
2023-05-06T03:36:47.880Z,13.8790
2023-05-06T03:37:48.272Z,13.8629
2023-05-06T03:38:48.665Z,13.8510
2023-05-06T03:39:48.996Z,13.8132
2023-05-06T03:40:49.435Z,13.7744
2023-05-06T03:41:49.801Z,13.7720
2023-05-06T03:42:50.152Z,13.6823
2023-05-06T03:43:50.522Z,13.6177
2023-05-06T03:44:50.895Z,13.5926
2023-05-06T03:45:51.468Z,13.6051
2023-05-06T03:46:51.847Z,13.5897
2023-05-06T03:47:52.268Z,13.5979
2023-05-06T03:48:52.617Z,13.6076
2023-05-06T03:49:52.997Z,13.6131
2023-05-06T03:50:53.383Z,13.6010
2023-05-06T03:51:53.696Z,13.5995
2023-05-06T03:52:54.015Z,13.5726
2023-05-06T03:53:54.927Z,13.5627
2023-05-06T03:54:55.557Z,13.6083
2023-05-06T03:55:55.902Z,13.5748
2023-05-06T03:56:56.311Z,13.6076
2023-05-06T03:57:56.622Z,13.5938
2023-05-06T03:58:56.965Z,13.6136
2023-05-06T03:59:57.308Z,13.5982
2023-05-06T04:00:57.651Z,13.6082
2023-05-06T04:01:58.082Z,13.5894
2023-05-06T04:02:58.517Z,13.5119
2023-05-06T04:03:58.940Z,13.4993
2023-05-06T04:04:59.312Z,13.4923
2023-05-06T04:05:59.741Z,13.4771
2023-05-06T04:07:00.108Z,13.4805
2023-05-06T04:08:00.486Z,13.4880
2023-05-06T04:09:00.878Z,13.5061
2023-05-06T04:10:01.252Z,13.4839
2023-05-06T04:11:01.625Z,13.5181
2023-05-06T04:12:01.977Z,13.5517
2023-05-06T04:13:02.377Z,13.5854
2023-05-06T04:14:02.742Z,13.5887
2023-05-06T04:15:03.136Z,13.5888
2023-05-06T04:16:03.616Z,13.6085
2023-05-06T04:17:03.999Z,13.6549
2023-05-06T04:18:04.381Z,13.6713
2023-05-06T04:19:06.512Z,13.6959
2023-05-06T04:20:07.283Z,13.7397
2023-05-06T04:21:07.730Z,13.7419
2023-05-06T04:22:08.252Z,13.7788
2023-05-06T04:23:08.586Z,13.7916
2023-05-06T04:24:08.965Z,13.8491
2023-05-06T04:25:09.708Z,13.8319
2023-05-06T04:26:10.496Z,13.8432
2023-05-06T04:27:10.838Z,13.8403
2023-05-06T04:28:11.224Z,13.8601
2023-05-06T04:29:11.567Z,13.8546
2023-05-06T04:30:11.908Z,13.8707
2023-05-06T04:31:12.305Z,13.8659
2023-05-06T04:32:12.692Z,13.8382
2023-05-06T04:33:13.091Z,13.8416
2023-05-06T04:34:13.467Z,13.8217
2023-05-06T04:35:13.822Z,13.8304
2023-05-06T04:36:14.237Z,13.8202
2023-05-06T04:37:14.596Z,13.7935
2023-05-06T04:38:14.976Z,13.7545
2023-05-06T04:39:15.338Z,13.7597
2023-05-06T04:40:15.697Z,13.8087
2023-05-06T04:41:16.089Z,13.8154
2023-05-06T04:42:16.528Z,13.8392
2023-05-06T04:43:16.902Z,13.8932
2023-05-06T04:44:17.315Z,13.8810
2023-05-06T04:45:17.637Z,13.9077
2023-05-06T04:46:18.046Z,13.9272
2023-05-06T04:47:18.514Z,13.9008
2023-05-06T04:48:18.905Z,13.8933
2023-05-06T04:49:19.359Z,13.9197
2023-05-06T04:50:19.769Z,13.8959
2023-05-06T04:51:20.119Z,13.9437
2023-05-06T04:52:20.499Z,13.9857
2023-05-06T04:53:20.957Z,14.0138
2023-05-06T04:54:21.366Z,13.9718
2023-05-06T04:55:21.737Z,13.9424
2023-05-06T04:56:22.084Z,13.9729
2023-05-06T04:57:22.425Z,13.9544
2023-05-06T04:58:22.758Z,13.9076
2023-05-06T04:59:23.177Z,13.8988
2023-05-06T05:00:23.586Z,13.9244
2023-05-06T05:01:24.047Z,13.9375
2023-05-06T05:02:24.522Z,13.9331
2023-05-06T05:03:25.013Z,13.9362
2023-05-06T05:04:25.468Z,13.9204
2023-05-06T05:05:25.890Z,13.9059
2023-05-06T05:06:26.219Z,13.8683
2023-05-06T05:07:26.589Z,13.9110
2023-05-06T05:08:26.963Z,13.9267
2023-05-06T05:09:27.313Z,13.9236
2023-05-06T05:10:27.688Z,13.8556
2023-05-06T05:11:28.093Z,13.9387
2023-05-06T05:12:28.494Z,13.9586
2023-05-06T05:13:28.809Z,13.9695
2023-05-06T05:14:29.198Z,13.9817
2023-05-06T05:15:29.614Z,13.9933
2023-05-06T05:16:30.021Z,14.0397
2023-05-06T05:17:30.454Z,14.0861
2023-05-06T05:18:30.856Z,14.0644
2023-05-06T05:19:31.198Z,14.0642
2023-05-06T05:20:31.686Z,14.0751
2023-05-06T05:21:32.195Z,14.1146
2023-05-06T05:22:32.583Z,14.1263
2023-05-06T05:23:32.907Z,14.1872
2023-05-06T05:24:33.289Z,14.2407
2023-05-06T05:25:33.692Z,14.3046
2023-05-06T05:26:34.040Z,14.4191
2023-05-06T05:27:34.439Z,14.4795
2023-05-06T05:28:34.820Z,14.5368
2023-05-06T05:29:35.128Z,14.6147
2023-05-06T05:30:35.449Z,14.6513
2023-05-06T05:31:35.803Z,14.6574
2023-05-06T05:32:36.247Z,14.6595
2023-05-06T05:33:36.761Z,14.5735
2023-05-06T05:34:37.163Z,14.5324
2023-05-06T05:35:37.469Z,14.4584
2023-05-06T05:36:37.820Z,14.5529
2023-05-06T05:37:38.174Z,14.4996
2023-05-06T05:38:38.555Z,14.4718
2023-05-06T05:39:38.990Z,14.3695
2023-05-06T05:40:39.312Z,14.3263
2023-05-06T05:41:39.628Z,14.3484
2023-05-06T05:42:39.987Z,14.3064
2023-05-06T05:43:40.311Z,14.3159
2023-05-06T05:44:40.956Z,14.4143
2023-05-06T05:45:41.297Z,14.4547
2023-05-06T05:46:41.674Z,14.4677
2023-05-06T05:47:42.137Z,14.4593
2023-05-06T05:48:42.441Z,14.4010
2023-05-06T05:49:42.838Z,14.4452
2023-05-06T05:50:43.167Z,14.4742
2023-05-06T05:51:43.648Z,14.5298
2023-05-06T05:52:43.973Z,14.6167
2023-05-06T05:53:44.320Z,14.6712
2023-05-06T05:54:44.661Z,14.7517
2023-05-06T05:55:44.987Z,14.7798
2023-05-06T05:56:45.363Z,14.7857
2023-05-06T05:57:45.722Z,14.7524
2023-05-06T05:58:46.138Z,14.7417
2023-05-06T05:59:46.654Z,14.7450
2023-05-06T06:00:47.043Z,14.7228
2023-05-06T06:01:47.356Z,14.5617
2023-05-06T06:02:47.789Z,14.4600
2023-05-06T06:03:48.423Z,14.4947
2023-05-06T06:04:49.095Z,14.4193
2023-05-06T06:05:49.528Z,14.4218
2023-05-06T06:06:49.889Z,14.4223
2023-05-06T06:07:50.205Z,14.4284
2023-05-06T06:08:50.589Z,14.5001
2023-05-06T06:09:50.943Z,14.6526
2023-05-06T06:10:51.271Z,14.7616
2023-05-06T06:11:51.632Z,14.7642
2023-05-06T06:12:52.088Z,14.8595
2023-05-06T06:13:52.713Z,14.9593
2023-05-06T06:14:53.050Z,15.0312
2023-05-06T06:15:53.414Z,14.9452
2023-05-06T06:16:53.805Z,15.0083
2023-05-06T06:17:54.261Z,14.9557
2023-05-06T06:18:54.748Z,14.9741
2023-05-06T06:19:55.113Z,15.0066
2023-05-06T06:20:55.441Z,15.0272
2023-05-06T06:21:55.795Z,15.0277
2023-05-06T06:22:56.123Z,15.1232
2023-05-06T06:23:56.471Z,15.1651
2023-05-06T06:24:56.860Z,15.0688
2023-05-06T06:25:57.181Z,14.9485
2023-05-06T06:26:57.520Z,14.9741
2023-05-06T06:27:57.862Z,15.0123
2023-05-06T06:28:58.287Z,15.0607
2023-05-06T06:29:58.631Z,15.1479
2023-05-06T06:30:59.033Z,15.1802
2023-05-06T06:31:59.476Z,15.1892
2023-05-06T06:32:59.890Z,15.2272
2023-05-06T06:34:00.272Z,15.2127
2023-05-06T06:35:00.630Z,15.2590
2023-05-06T06:36:00.996Z,15.2719
2023-05-06T06:37:01.301Z,15.1904
2023-05-06T06:38:01.677Z,15.1489
2023-05-06T06:39:01.997Z,15.0581
2023-05-06T06:40:02.356Z,15.0778
2023-05-06T06:41:02.673Z,15.0132
2023-05-06T06:42:02.990Z,15.0824
2023-05-06T06:43:03.305Z,15.1447
2023-05-06T06:44:03.704Z,15.1342
2023-05-06T06:45:04.094Z,15.1305
2023-05-06T06:46:04.475Z,15.2148
2023-05-06T06:47:04.839Z,15.2586
2023-05-06T06:48:05.213Z,15.2310
2023-05-06T06:49:05.596Z,15.3535
2023-05-06T06:50:05.973Z,15.3496
2023-05-06T06:51:06.433Z,15.3491
2023-05-06T06:52:06.812Z,15.3841
2023-05-06T06:53:07.207Z,15.4903
2023-05-06T06:54:07.576Z,15.5399
2023-05-06T06:55:08.198Z,15.6662
2023-05-06T06:56:08.746Z,15.6830
2023-05-06T06:57:09.170Z,15.6803
2023-05-06T06:58:09.568Z,15.6973
2023-05-06T06:59:10.034Z,15.7216
2023-05-06T07:00:10.467Z,15.6625
2023-05-06T07:01:10.885Z,15.7379
2023-05-06T07:02:11.280Z,15.7245
2023-05-06T07:03:11.677Z,15.5884
2023-05-06T07:04:12.102Z,15.5236
2023-05-06T07:05:12.746Z,15.4855
2023-05-06T07:06:13.354Z,15.5244
2023-05-06T07:07:13.759Z,15.6457
2023-05-06T07:08:14.127Z,15.7230
2023-05-06T07:09:14.554Z,15.7828
2023-05-06T07:10:14.907Z,15.9466
2023-05-06T07:11:15.289Z,15.9817
2023-05-06T07:12:15.773Z,15.8718
2023-05-06T07:13:16.257Z,15.9205
2023-05-06T07:14:16.656Z,15.9009
2023-05-06T07:15:17.043Z,15.9146
2023-05-06T07:16:17.445Z,15.6433
2023-05-06T07:17:17.810Z,15.5572
2023-05-06T07:18:18.238Z,15.7188
2023-05-06T07:19:18.646Z,15.7860
2023-05-06T07:20:19.017Z,15.6761
2023-05-06T07:21:19.427Z,15.6078
2023-05-06T07:22:19.776Z,15.6470
2023-05-06T07:23:20.217Z,15.6488
2023-05-06T07:24:20.581Z,15.6558
2023-05-06T07:25:21.022Z,15.7711
2023-05-06T07:26:21.365Z,15.9159
2023-05-06T07:27:21.886Z,15.7885
2023-05-06T07:28:22.328Z,15.8078
2023-05-06T07:29:22.692Z,16.0432
2023-05-06T07:30:23.495Z,15.9543
2023-05-06T07:31:24.086Z,16.1474
2023-05-06T07:32:24.501Z,16.3825
2023-05-06T07:33:24.902Z,16.4398
2023-05-06T07:34:25.338Z,16.5222
2023-05-06T07:35:25.738Z,16.4767
2023-05-06T07:36:26.157Z,16.2787
2023-05-06T07:37:26.580Z,15.9903
2023-05-06T07:38:26.995Z,15.9730
2023-05-06T07:39:27.366Z,15.9627
2023-05-06T07:40:27.768Z,16.0566
2023-05-06T07:41:28.147Z,15.9531
2023-05-06T07:42:28.566Z,15.8030
2023-05-06T07:43:28.996Z,15.8008
2023-05-06T07:44:29.451Z,15.7471
2023-05-06T07:45:29.853Z,15.7392
2023-05-06T07:46:31.283Z,15.8005
2023-05-06T07:47:31.794Z,15.8803
2023-05-06T07:48:32.301Z,15.9252
2023-05-06T07:49:32.701Z,15.9105
2023-05-06T07:50:33.020Z,15.8372
2023-05-06T07:51:33.333Z,15.9719
2023-05-06T07:52:33.665Z,15.9941
2023-05-06T07:53:34.045Z,16.0435
2023-05-06T07:54:34.460Z,16.1435
2023-05-06T07:55:35.267Z,16.1163
2023-05-06T07:56:35.951Z,16.1454
2023-05-06T07:57:36.319Z,16.1575
2023-05-06T07:58:36.711Z,16.2136
2023-05-06T07:59:37.067Z,16.3710
2023-05-06T08:00:37.426Z,16.4248
2023-05-06T08:01:37.740Z,16.4819
2023-05-06T08:02:38.164Z,16.6677
2023-05-06T08:03:38.755Z,16.5662
2023-05-06T08:04:39.205Z,16.5793
2023-05-06T08:05:39.611Z,16.4632
2023-05-06T08:06:39.980Z,16.5086
2023-05-06T08:07:40.346Z,16.5359
2023-05-06T08:08:40.653Z,16.5433
2023-05-06T08:09:41.047Z,16.6668
2023-05-06T08:10:41.440Z,16.6669
2023-05-06T08:11:41.831Z,16.6701
2023-05-06T08:12:42.198Z,16.7294
2023-05-06T08:13:42.589Z,16.7774
2023-05-06T08:14:42.968Z,16.7666
2023-05-06T08:15:43.331Z,16.7871
2023-05-06T08:16:43.732Z,16.8743
2023-05-06T08:17:44.103Z,16.9505
2023-05-06T08:18:44.395Z,17.0167
2023-05-06T08:19:44.702Z,17.1969
2023-05-06T08:20:45.072Z,17.3640
2023-05-06T08:21:45.349Z,17.4296
2023-05-06T08:22:45.693Z,17.5423
2023-05-06T08:23:45.993Z,17.6004
2023-05-06T08:24:46.378Z,17.6375
2023-05-06T08:25:46.727Z,17.5349
2023-05-06T08:26:47.126Z,17.4996
2023-05-06T08:27:47.420Z,17.6408
2023-05-06T08:28:47.834Z,17.7937
2023-05-06T08:29:48.099Z,17.8721
2023-05-06T08:30:48.498Z,17.8737
2023-05-06T08:31:48.959Z,17.8111
2023-05-06T08:32:49.409Z,17.8625
2023-05-06T08:33:49.691Z,17.9252
2023-05-06T08:34:50.013Z,18.0783
2023-05-06T08:35:50.341Z,18.1741
2023-05-06T08:36:50.730Z,18.2921
2023-05-06T08:37:51.018Z,18.5247
2023-05-06T08:38:51.380Z,18.5682
2023-05-06T08:39:51.666Z,18.5489
2023-05-06T08:40:52.017Z,18.3680
2023-05-06T08:41:52.368Z,18.1715
2023-05-06T08:42:52.697Z,18.3391
2023-05-06T08:43:53.045Z,18.2005
2023-05-06T08:44:53.377Z,18.1543
2023-05-06T08:45:53.842Z,18.2352
2023-05-06T08:46:54.216Z,18.4272
2023-05-06T08:47:54.511Z,18.6325
2023-05-06T08:48:54.795Z,18.5047
2023-05-06T08:49:55.062Z,18.2717
2023-05-06T08:50:55.404Z,18.5384
2023-05-06T08:51:55.707Z,18.5356
2023-05-06T08:52:56.009Z,18.3752
2023-05-06T08:53:56.416Z,18.3769
2023-05-06T08:54:56.777Z,18.3193
2023-05-06T08:55:57.121Z,18.3220
2023-05-06T08:56:57.465Z,18.1608
2023-05-06T08:57:57.801Z,18.2207
2023-05-06T08:58:58.154Z,18.2731
2023-05-06T08:59:58.497Z,18.4185
2023-05-06T09:00:58.945Z,18.2588
2023-05-06T09:01:59.313Z,18.1308
2023-05-06T09:02:59.733Z,18.2872
2023-05-06T09:04:00.133Z,18.1769
2023-05-06T09:05:00.546Z,18.2442
2023-05-06T09:06:00.937Z,18.3684
2023-05-06T09:07:01.302Z,18.4517
2023-05-06T09:08:01.661Z,18.5674
2023-05-06T09:09:02.048Z,18.6140
2023-05-06T09:10:02.419Z,18.6402
2023-05-06T09:11:02.800Z,18.8207
2023-05-06T09:12:03.253Z,18.5629
2023-05-06T09:13:03.612Z,18.4986
2023-05-06T09:14:04.007Z,18.3215
2023-05-06T09:15:04.348Z,18.3977
2023-05-06T09:16:04.749Z,18.6628
2023-05-06T09:17:05.183Z,18.7519
2023-05-06T09:18:05.628Z,19.0428
2023-05-06T09:19:06.034Z,18.9996
2023-05-06T09:20:06.405Z,18.9900
2023-05-06T09:21:06.708Z,19.0831
2023-05-06T09:22:07.032Z,19.0717
2023-05-06T09:23:07.363Z,19.1243
2023-05-06T09:24:07.678Z,19.2358
2023-05-06T09:25:08.299Z,19.4448
2023-05-06T09:26:08.793Z,19.3538
2023-05-06T09:27:10.618Z,19.1049
2023-05-06T09:28:11.605Z,19.1550
2023-05-06T09:29:11.957Z,19.1657
2023-05-06T09:30:12.513Z,19.1463
2023-05-06T09:31:12.944Z,18.9686
2023-05-06T09:32:13.259Z,18.8941
2023-05-06T09:33:13.657Z,19.0271
2023-05-06T09:34:13.986Z,19.0789
2023-05-06T09:35:14.482Z,18.9845
2023-05-06T09:36:15.169Z,19.0033
2023-05-06T09:37:15.492Z,19.0447
2023-05-06T09:38:15.895Z,19.0787
2023-05-06T09:39:16.247Z,18.9573
2023-05-06T09:40:16.685Z,18.9175
2023-05-06T09:41:17.073Z,18.8323
2023-05-06T09:42:17.462Z,18.9456
2023-05-06T09:43:17.812Z,19.2855
2023-05-06T09:44:18.129Z,19.4121
2023-05-06T09:45:19.521Z,19.4822
2023-05-06T09:46:19.908Z,19.3337
2023-05-06T09:47:20.247Z,19.2725
2023-05-06T09:48:20.619Z,19.3147
2023-05-06T09:49:20.960Z,19.2513
2023-05-06T09:50:21.287Z,19.4452
2023-05-06T09:51:21.585Z,19.3927
2023-05-06T09:52:21.977Z,19.4043
2023-05-06T09:53:22.343Z,19.2233
2023-05-06T09:54:22.667Z,19.3545
2023-05-06T09:55:23.116Z,19.5598
2023-05-06T09:56:23.427Z,19.8380
2023-05-06T09:57:23.814Z,20.0429
2023-05-06T09:58:24.150Z,19.9578
2023-05-06T09:59:24.480Z,19.5923
2023-05-06T10:00:24.788Z,19.4588
2023-05-06T10:01:36.166Z,19.4526
2023-05-06T10:02:25.881Z,19.2872
2023-05-06T10:03:26.300Z,19.5595
2023-05-06T10:04:26.922Z,19.5754
2023-05-06T10:05:27.574Z,19.5585
2023-05-06T10:06:27.915Z,19.5534
2023-05-06T10:07:28.271Z,19.5923
2023-05-06T10:08:28.597Z,19.8905
2023-05-06T10:09:28.924Z,19.7368
2023-05-06T10:10:29.267Z,20.0525
2023-05-06T10:11:29.618Z,20.2928
2023-05-06T10:12:29.976Z,20.3246
2023-05-06T10:13:30.329Z,19.7533
2023-05-06T10:14:30.620Z,19.6885
2023-05-06T10:15:30.997Z,19.8379
2023-05-06T10:16:31.381Z,20.0089
2023-05-06T10:17:31.839Z,19.7326
2023-05-06T10:18:32.162Z,19.7225
2023-05-06T10:19:32.513Z,19.5654
2023-05-06T10:20:32.890Z,19.7018
2023-05-06T10:21:33.244Z,19.6694
2023-05-06T10:22:33.649Z,19.9081
2023-05-06T10:23:33.951Z,20.1779
2023-05-06T10:24:34.247Z,20.3428
2023-05-06T10:25:34.642Z,20.4281
2023-05-06T10:26:35.069Z,20.6349
2023-05-06T10:27:35.386Z,20.6026
2023-05-06T10:28:35.769Z,20.5225
2023-05-06T10:29:36.213Z,20.8690
2023-05-06T10:30:36.606Z,20.6222
2023-05-06T10:31:37.075Z,20.5992
2023-05-06T10:32:37.414Z,20.6006
2023-05-06T10:33:38.015Z,20.7528
2023-05-06T10:34:39.117Z,20.8904
2023-05-06T10:35:39.434Z,21.1025
2023-05-06T10:36:39.733Z,21.4160
2023-05-06T10:37:40.079Z,21.6953
2023-05-06T10:38:40.403Z,21.7993
2023-05-06T10:39:42.097Z,21.7959
2023-05-06T10:40:42.653Z,21.4639
2023-05-06T10:41:42.996Z,21.8101
2023-05-06T10:42:43.320Z,21.6449
2023-05-06T10:43:43.629Z,21.4190
2023-05-06T10:44:45.051Z,21.1584
2023-05-06T10:45:43.873Z,20.8673
2023-05-06T10:46:44.213Z,20.8590
2023-05-06T10:47:44.578Z,20.9518
2023-05-06T10:48:44.880Z,20.9257
2023-05-06T10:49:45.189Z,20.7567
2023-05-06T10:50:46.833Z,21.0750
2023-05-06T10:51:47.292Z,21.2998
2023-05-06T10:52:47.610Z,21.0472
2023-05-06T10:53:47.922Z,21.2566
2023-05-06T10:54:48.244Z,21.5932
2023-05-06T10:55:48.568Z,21.5920
2023-05-06T10:56:48.856Z,21.7483
2023-05-06T10:57:49.199Z,21.7695
2023-05-06T10:58:49.488Z,21.7740
2023-05-06T10:59:49.843Z,21.7352
2023-05-06T11:00:50.118Z,21.7096
2023-05-06T11:01:50.399Z,22.0670
2023-05-06T11:02:50.766Z,21.6450
2023-05-06T11:03:51.026Z,21.6819
2023-05-06T11:04:51.345Z,21.7086
2023-05-06T11:05:51.674Z,21.7493
2023-05-06T11:06:52.011Z,21.4300
2023-05-06T11:07:52.360Z,21.6171
2023-05-06T11:08:52.642Z,21.8207
2023-05-06T11:09:52.982Z,22.6070
2023-05-06T11:10:53.276Z,22.4079
2023-05-06T11:11:53.530Z,22.5779
2023-05-06T11:12:53.957Z,22.4205
2023-05-06T11:13:54.302Z,21.6489
2023-05-06T11:14:54.549Z,21.8195
2023-05-06T11:15:54.839Z,21.7594
2023-05-06T11:16:55.179Z,22.4025
2023-05-06T11:17:55.573Z,23.2748
2023-05-06T11:18:56.046Z,23.0669
2023-05-06T11:19:56.333Z,23.4986
2023-05-06T11:20:56.613Z,23.9167
2023-05-06T11:21:56.870Z,23.3870
2023-05-06T11:22:57.160Z,22.3601
2023-05-06T11:23:57.460Z,22.1663
2023-05-06T11:24:57.686Z,21.9778
2023-05-06T11:25:57.920Z,22.3504
2023-05-06T11:26:58.188Z,22.1141
2023-05-06T11:27:58.449Z,21.6091
2023-05-06T11:28:58.774Z,21.3474
2023-05-06T11:29:58.995Z,21.6363
2023-05-06T11:30:59.296Z,21.4195
2023-05-06T11:31:59.584Z,21.2220
2023-05-06T11:32:59.917Z,21.3256
2023-05-06T11:34:00.223Z,21.2584
2023-05-06T11:35:00.524Z,21.1096
2023-05-06T11:36:00.772Z,21.0858
2023-05-06T11:37:01.003Z,20.9784
2023-05-06T11:38:01.308Z,21.3584
2023-05-06T11:39:03.522Z,21.6556
2023-05-06T11:40:02.648Z,21.9291
2023-05-06T11:41:02.998Z,22.0976
2023-05-06T11:42:03.247Z,22.1412
2023-05-06T11:43:03.540Z,22.4887
2023-05-06T11:44:03.783Z,21.9825
2023-05-06T11:45:04.139Z,22.1063
2023-05-06T11:46:04.476Z,22.3728
2023-05-06T11:47:04.793Z,22.2606
2023-05-06T11:48:05.184Z,22.0986
2023-05-06T11:49:05.464Z,22.3636
2023-05-06T11:50:05.769Z,22.6228
2023-05-06T11:51:06.147Z,22.2441
2023-05-06T11:52:06.444Z,21.8881
2023-05-06T11:53:06.779Z,22.1400
2023-05-06T11:54:07.160Z,22.2892
2023-05-06T11:55:07.418Z,22.2736
2023-05-06T11:56:07.722Z,22.3449
2023-05-06T11:57:08.052Z,22.4500
2023-05-06T11:58:08.464Z,22.2919
2023-05-06T11:59:08.786Z,22.1546
2023-05-06T12:00:09.279Z,21.8914
2023-05-06T12:01:09.714Z,22.0072
2023-05-06T12:02:10.041Z,22.0139
2023-05-06T12:03:10.453Z,21.6018
2023-05-06T12:04:10.932Z,21.4525
2023-05-06T12:05:11.290Z,21.5684
2023-05-06T12:06:11.573Z,21.6832
2023-05-06T12:07:11.922Z,21.7300
2023-05-06T12:08:23.551Z,22.3575
2023-05-06T12:09:12.714Z,22.3406
2023-05-06T12:10:13.206Z,22.5755